sensor_id;sensor_type;location;lat;lon;timestamp;P1;durP1;ratioP1;P2;durP2;ratioP2
1691;SDS011;843;52.054;8.552;2023-02-15T00:01:13;34.07;;;18.27;;
1691;SDS011;843;52.054;8.552;2023-02-15T00:03:41;32.77;;;18.73;;
1691;SDS011;843;52.054;8.552;2023-02-15T00:06:08;30.57;;;16.67;;
1691;SDS011;843;52.054;8.552;2023-02-15T00:08:35;38.27;;;19.10;;
1691;SDS011;843;52.054;8.552;2023-02-15T00:11:05;33.27;;;18.30;;
1691;SDS011;843;52.054;8.552;2023-02-15T00:13:32;29.70;;;17.20;;
1691;SDS011;843;52.054;8.552;2023-02-15T00:16:04;29.10;;;17.23;;
1691;SDS011;843;52.054;8.552;2023-02-15T00:18:32;27.07;;;16.80;;
1691;SDS011;843;52.054;8.552;2023-02-15T00:21:02;29.27;;;17.47;;
1691;SDS011;843;52.054;8.552;2023-02-15T00:23:30;26.87;;;16.70;;
1691;SDS011;843;52.054;8.552;2023-02-15T00:26:03;29.17;;;18.10;;
1691;SDS011;843;52.054;8.552;2023-02-15T00:28:30;24.77;;;16.07;;
1691;SDS011;843;52.054;8.552;2023-02-15T00:31:01;29.27;;;17.10;;
1691;SDS011;843;52.054;8.552;2023-02-15T00:33:29;23.00;;;15.93;;
1691;SDS011;843;52.054;8.552;2023-02-15T00:35:56;29.20;;;17.17;;
1691;SDS011;843;52.054;8.552;2023-02-15T00:38:25;27.37;;;16.30;;
1691;SDS011;843;52.054;8.552;2023-02-15T00:40:52;28.03;;;17.83;;
1691;SDS011;843;52.054;8.552;2023-02-15T00:43:19;28.30;;;17.33;;
1691;SDS011;843;52.054;8.552;2023-02-15T00:45:46;28.20;;;16.77;;
1691;SDS011;843;52.054;8.552;2023-02-15T00:48:12;29.90;;;16.70;;
1691;SDS011;843;52.054;8.552;2023-02-15T00:50:39;28.03;;;16.70;;
1691;SDS011;843;52.054;8.552;2023-02-15T00:53:06;24.27;;;15.37;;
1691;SDS011;843;52.054;8.552;2023-02-15T00:55:34;27.50;;;16.70;;
1691;SDS011;843;52.054;8.552;2023-02-15T00:58:02;24.73;;;15.40;;
1691;SDS011;843;52.054;8.552;2023-02-15T01:00:28;25.53;;;15.17;;
1691;SDS011;843;52.054;8.552;2023-02-15T01:02:55;26.37;;;16.67;;
1691;SDS011;843;52.054;8.552;2023-02-15T01:05:21;26.67;;;15.90;;
1691;SDS011;843;52.054;8.552;2023-02-15T01:07:48;30.00;;;16.10;;
1691;SDS011;843;52.054;8.552;2023-02-15T01:10:15;31.83;;;19.00;;
1691;SDS011;843;52.054;8.552;2023-02-15T01:12:43;35.27;;;19.90;;
1691;SDS011;843;52.054;8.552;2023-02-15T01:15:10;31.40;;;17.07;;
1691;SDS011;843;52.054;8.552;2023-02-15T01:17:36;31.30;;;18.50;;
1691;SDS011;843;52.054;8.552;2023-02-15T01:20:03;28.53;;;15.97;;
1691;SDS011;843;52.054;8.552;2023-02-15T01:22:31;29.03;;;18.20;;
1691;SDS011;843;52.054;8.552;2023-02-15T01:24:58;29.00;;;17.43;;
1691;SDS011;843;52.054;8.552;2023-02-15T01:27:24;30.40;;;17.90;;
1691;SDS011;843;52.054;8.552;2023-02-15T01:29:52;32.17;;;18.03;;
1691;SDS011;843;52.054;8.552;2023-02-15T01:32:19;31.60;;;17.93;;
1691;SDS011;843;52.054;8.552;2023-02-15T01:34:46;33.23;;;17.90;;
1691;SDS011;843;52.054;8.552;2023-02-15T01:37:12;29.17;;;17.10;;
1691;SDS011;843;52.054;8.552;2023-02-15T01:39:39;32.77;;;17.83;;
1691;SDS011;843;52.054;8.552;2023-02-15T01:42:07;38.40;;;18.67;;
1691;SDS011;843;52.054;8.552;2023-02-15T01:44:51;34.40;;;19.83;;
1691;SDS011;843;52.054;8.552;2023-02-15T01:47:32;33.80;;;17.50;;
1691;SDS011;843;52.054;8.552;2023-02-15T01:50:04;29.80;;;17.57;;
1691;SDS011;843;52.054;8.552;2023-02-15T01:52:35;32.43;;;19.10;;
1691;SDS011;843;52.054;8.552;2023-02-15T01:55:04;35.10;;;18.50;;
1691;SDS011;843;52.054;8.552;2023-02-15T01:57:31;30.00;;;16.80;;
1691;SDS011;843;52.054;8.552;2023-02-15T01:59:59;29.87;;;17.80;;
1691;SDS011;843;52.054;8.552;2023-02-15T02:02:31;30.23;;;16.90;;
1691;SDS011;843;52.054;8.552;2023-02-15T02:04:58;34.70;;;17.70;;
1691;SDS011;843;52.054;8.552;2023-02-15T02:07:29;34.23;;;19.57;;
1691;SDS011;843;52.054;8.552;2023-02-15T02:09:58;30.80;;;18.03;;
1691;SDS011;843;52.054;8.552;2023-02-15T02:12:26;31.97;;;18.70;;
1691;SDS011;843;52.054;8.552;2023-02-15T02:14:52;27.83;;;17.60;;
1691;SDS011;843;52.054;8.552;2023-02-15T02:17:22;35.47;;;18.57;;
1691;SDS011;843;52.054;8.552;2023-02-15T02:20:03;30.17;;;17.77;;
1691;SDS011;843;52.054;8.552;2023-02-15T02:32:12;26.67;;;17.03;;
1691;SDS011;843;52.054;8.552;2023-02-15T02:34:51;32.17;;;17.40;;
1691;SDS011;843;52.054;8.552;2023-02-15T02:37:23;33.10;;;18.27;;
1691;SDS011;843;52.054;8.552;2023-02-15T02:39:54;30.63;;;17.97;;
1691;SDS011;843;52.054;8.552;2023-02-15T02:42:25;31.50;;;17.73;;
1691;SDS011;843;52.054;8.552;2023-02-15T02:44:56;37.13;;;18.60;;
1691;SDS011;843;52.054;8.552;2023-02-15T02:47:27;31.30;;;18.70;;
1691;SDS011;843;52.054;8.552;2023-02-15T02:49:59;31.47;;;16.33;;
1691;SDS011;843;52.054;8.552;2023-02-15T02:52:35;32.03;;;17.70;;
1691;SDS011;843;52.054;8.552;2023-02-15T02:55:03;28.10;;;16.33;;
1691;SDS011;843;52.054;8.552;2023-02-15T02:57:32;34.47;;;17.63;;
1691;SDS011;843;52.054;8.552;2023-02-15T03:00:00;30.87;;;17.47;;
1691;SDS011;843;52.054;8.552;2023-02-15T03:02:30;31.47;;;17.43;;
1691;SDS011;843;52.054;8.552;2023-02-15T03:05:01;31.40;;;17.80;;
1691;SDS011;843;52.054;8.552;2023-02-15T03:07:29;30.07;;;18.30;;
1691;SDS011;843;52.054;8.552;2023-02-15T03:09:57;38.23;;;18.90;;
1691;SDS011;843;52.054;8.552;2023-02-15T03:12:26;32.87;;;18.77;;
1691;SDS011;843;52.054;8.552;2023-02-15T03:14:57;34.80;;;18.77;;
1691;SDS011;843;52.054;8.552;2023-02-15T03:17:26;31.93;;;19.07;;
1691;SDS011;843;52.054;8.552;2023-02-15T03:19:54;33.70;;;19.03;;
1691;SDS011;843;52.054;8.552;2023-02-15T03:22:25;33.47;;;19.00;;
1691;SDS011;843;52.054;8.552;2023-02-15T03:24:55;33.80;;;17.90;;
1691;SDS011;843;52.054;8.552;2023-02-15T03:27:24;33.40;;;18.03;;
1691;SDS011;843;52.054;8.552;2023-02-15T03:29:52;37.00;;;20.50;;
1691;SDS011;843;52.054;8.552;2023-02-15T03:32:21;33.53;;;18.60;;
1691;SDS011;843;52.054;8.552;2023-02-15T03:34:48;33.73;;;19.10;;
1691;SDS011;843;52.054;8.552;2023-02-15T03:37:16;38.93;;;20.70;;
1691;SDS011;843;52.054;8.552;2023-02-15T03:39:47;37.53;;;19.47;;
1691;SDS011;843;52.054;8.552;2023-02-15T03:42:16;35.20;;;18.10;;
1691;SDS011;843;52.054;8.552;2023-02-15T03:44:47;38.13;;;20.33;;
1691;SDS011;843;52.054;8.552;2023-02-15T03:47:18;35.60;;;19.50;;
1691;SDS011;843;52.054;8.552;2023-02-15T03:49:47;37.37;;;19.27;;
1691;SDS011;843;52.054;8.552;2023-02-15T03:52:16;43.03;;;21.47;;
1691;SDS011;843;52.054;8.552;2023-02-15T03:54:44;42.33;;;21.03;;
1691;SDS011;843;52.054;8.552;2023-02-15T03:57:14;39.07;;;21.20;;
1691;SDS011;843;52.054;8.552;2023-02-15T04:00:03;36.23;;;21.13;;
1691;SDS011;843;52.054;8.552;2023-02-15T04:02:55;39.73;;;22.77;;
1691;SDS011;843;52.054;8.552;2023-02-15T04:05:31;39.00;;;22.27;;
1691;SDS011;843;52.054;8.552;2023-02-15T04:07:57;39.27;;;21.33;;
1691;SDS011;843;52.054;8.552;2023-02-15T04:10:24;38.70;;;22.77;;
1691;SDS011;843;52.054;8.552;2023-02-15T04:13:09;36.87;;;18.43;;
1691;SDS011;843;52.054;8.552;2023-02-15T04:15:36;43.63;;;19.97;;
1691;SDS011;843;52.054;8.552;2023-02-15T04:18:20;37.17;;;20.20;;
1691;SDS011;843;52.054;8.552;2023-02-15T04:20:46;35.20;;;20.53;;
1691;SDS011;843;52.054;8.552;2023-02-15T04:23:31;35.93;;;20.60;;
1691;SDS011;843;52.054;8.552;2023-02-15T04:26:15;35.23;;;20.40;;
1691;SDS011;843;52.054;8.552;2023-02-15T04:28:43;40.00;;;19.73;;
1691;SDS011;843;52.054;8.552;2023-02-15T04:31:10;39.67;;;21.20;;
1691;SDS011;843;52.054;8.552;2023-02-15T04:33:36;44.23;;;22.57;;
1691;SDS011;843;52.054;8.552;2023-02-15T04:36:03;35.87;;;18.60;;
1691;SDS011;843;52.054;8.552;2023-02-15T04:38:30;48.43;;;23.70;;
1691;SDS011;843;52.054;8.552;2023-02-15T04:40:57;37.50;;;21.27;;
1691;SDS011;843;52.054;8.552;2023-02-15T04:43:23;36.20;;;20.17;;
1691;SDS011;843;52.054;8.552;2023-02-15T04:45:52;45.33;;;22.07;;
1691;SDS011;843;52.054;8.552;2023-02-15T04:48:19;38.93;;;21.33;;
1691;SDS011;843;52.054;8.552;2023-02-15T04:50:46;41.07;;;22.10;;
1691;SDS011;843;52.054;8.552;2023-02-15T04:53:12;42.83;;;24.27;;
1691;SDS011;843;52.054;8.552;2023-02-15T04:55:41;38.80;;;21.97;;
1691;SDS011;843;52.054;8.552;2023-02-15T04:58:08;39.40;;;19.50;;
1691;SDS011;843;52.054;8.552;2023-02-15T05:00:35;41.07;;;23.70;;
1691;SDS011;843;52.054;8.552;2023-02-15T05:03:03;33.80;;;19.23;;
1691;SDS011;843;52.054;8.552;2023-02-15T05:05:29;37.63;;;21.03;;
1691;SDS011;843;52.054;8.552;2023-02-15T05:07:56;39.03;;;20.57;;
1691;SDS011;843;52.054;8.552;2023-02-15T05:10:22;36.03;;;20.07;;
1691;SDS011;843;52.054;8.552;2023-02-15T05:12:49;39.90;;;20.73;;
1691;SDS011;843;52.054;8.552;2023-02-15T05:15:16;41.20;;;20.43;;
1691;SDS011;843;52.054;8.552;2023-02-15T05:17:42;38.30;;;19.47;;
1691;SDS011;843;52.054;8.552;2023-02-15T05:20:11;40.10;;;21.10;;
1691;SDS011;843;52.054;8.552;2023-02-15T05:22:37;38.33;;;19.70;;
1691;SDS011;843;52.054;8.552;2023-02-15T05:25:06;34.30;;;20.03;;
1691;SDS011;843;52.054;8.552;2023-02-15T05:28:07;34.77;;;19.03;;
1691;SDS011;843;52.054;8.552;2023-02-15T05:30:46;39.97;;;19.50;;
1691;SDS011;843;52.054;8.552;2023-02-15T05:33:13;30.27;;;17.73;;
1691;SDS011;843;52.054;8.552;2023-02-15T05:35:41;40.53;;;22.07;;
1691;SDS011;843;52.054;8.552;2023-02-15T05:38:08;37.30;;;20.50;;
1691;SDS011;843;52.054;8.552;2023-02-15T06:09:36;42.50;;;23.53;;
1691;SDS011;843;52.054;8.552;2023-02-15T06:12:03;37.10;;;19.07;;
1691;SDS011;843;52.054;8.552;2023-02-15T06:14:30;46.80;;;23.97;;
1691;SDS011;843;52.054;8.552;2023-02-15T06:16:57;47.20;;;22.97;;
1691;SDS011;843;52.054;8.552;2023-02-15T06:19:23;43.20;;;23.23;;
1691;SDS011;843;52.054;8.552;2023-02-15T06:21:50;44.53;;;22.50;;
1691;SDS011;843;52.054;8.552;2023-02-15T06:24:17;47.53;;;22.90;;
1691;SDS011;843;52.054;8.552;2023-02-15T06:26:45;50.43;;;25.43;;
1691;SDS011;843;52.054;8.552;2023-02-15T06:29:11;49.03;;;24.23;;
1691;SDS011;843;52.054;8.552;2023-02-15T06:31:38;44.10;;;22.60;;
1691;SDS011;843;52.054;8.552;2023-02-15T06:34:06;44.13;;;21.93;;
1691;SDS011;843;52.054;8.552;2023-02-15T06:36:32;51.23;;;23.23;;
1691;SDS011;843;52.054;8.552;2023-02-15T06:38:59;43.63;;;21.47;;
1691;SDS011;843;52.054;8.552;2023-02-15T06:41:27;37.50;;;19.97;;
1691;SDS011;843;52.054;8.552;2023-02-15T06:43:55;43.27;;;23.30;;
1691;SDS011;843;52.054;8.552;2023-02-15T06:46:22;53.57;;;23.23;;
1691;SDS011;843;52.054;8.552;2023-02-15T06:48:49;40.37;;;20.97;;
1691;SDS011;843;52.054;8.552;2023-02-15T06:51:15;41.63;;;20.33;;
1691;SDS011;843;52.054;8.552;2023-02-15T06:53:42;43.10;;;22.50;;
1691;SDS011;843;52.054;8.552;2023-02-15T06:56:09;41.60;;;21.60;;
1691;SDS011;843;52.054;8.552;2023-02-15T06:58:36;42.40;;;21.97;;
1691;SDS011;843;52.054;8.552;2023-02-15T07:01:04;43.23;;;21.23;;
1691;SDS011;843;52.054;8.552;2023-02-15T07:03:31;41.63;;;21.13;;
1691;SDS011;843;52.054;8.552;2023-02-15T07:05:59;44.40;;;21.50;;
1691;SDS011;843;52.054;8.552;2023-02-15T07:08:27;42.93;;;21.27;;
1691;SDS011;843;52.054;8.552;2023-02-15T07:10:54;29.63;;;18.70;;
1691;SDS011;843;52.054;8.552;2023-02-15T07:13:42;37.83;;;20.30;;
1691;SDS011;843;52.054;8.552;2023-02-15T07:16:09;46.83;;;21.97;;
1691;SDS011;843;52.054;8.552;2023-02-15T07:18:36;43.50;;;21.20;;
1691;SDS011;843;52.054;8.552;2023-02-15T07:21:03;42.67;;;20.43;;
1691;SDS011;843;52.054;8.552;2023-02-15T07:46:03;31.37;;;18.30;;
1691;SDS011;843;52.054;8.552;2023-02-15T07:48:32;27.23;;;16.23;;
1691;SDS011;843;52.054;8.552;2023-02-15T07:50:59;32.33;;;17.17;;
1691;SDS011;843;52.054;8.552;2023-02-15T07:53:26;31.03;;;17.23;;
1691;SDS011;843;52.054;8.552;2023-02-15T07:55:53;28.67;;;18.37;;
1691;SDS011;843;52.054;8.552;2023-02-15T07:58:21;28.97;;;18.27;;
1691;SDS011;843;52.054;8.552;2023-02-15T08:01:09;28.43;;;18.87;;
1691;SDS011;843;52.054;8.552;2023-02-15T08:03:35;27.17;;;17.03;;
1691;SDS011;843;52.054;8.552;2023-02-15T08:06:02;28.90;;;18.50;;
1691;SDS011;843;52.054;8.552;2023-02-15T08:08:29;25.60;;;15.37;;
1691;SDS011;843;52.054;8.552;2023-02-15T08:11:00;20.80;;;13.53;;
1691;SDS011;843;52.054;8.552;2023-02-15T08:13:45;19.30;;;13.87;;
1691;SDS011;843;52.054;8.552;2023-02-15T08:16:28;18.80;;;13.27;;
1691;SDS011;843;52.054;8.552;2023-02-15T08:18:57;19.70;;;12.77;;
1691;SDS011;843;52.054;8.552;2023-02-15T08:21:25;19.13;;;13.10;;
1691;SDS011;843;52.054;8.552;2023-02-15T08:23:53;20.30;;;14.17;;
1691;SDS011;843;52.054;8.552;2023-02-15T08:26:20;18.70;;;11.73;;
1691;SDS011;843;52.054;8.552;2023-02-15T08:28:47;18.10;;;12.40;;
1691;SDS011;843;52.054;8.552;2023-02-15T08:31:15;19.40;;;13.30;;
1691;SDS011;843;52.054;8.552;2023-02-15T08:33:44;20.93;;;13.10;;
1691;SDS011;843;52.054;8.552;2023-02-15T08:36:13;17.50;;;12.30;;
1691;SDS011;843;52.054;8.552;2023-02-15T08:38:40;18.47;;;13.03;;
1691;SDS011;843;52.054;8.552;2023-02-15T08:41:11;17.17;;;12.30;;
1691;SDS011;843;52.054;8.552;2023-02-15T08:43:40;16.53;;;11.73;;
1691;SDS011;843;52.054;8.552;2023-02-15T08:46:07;17.80;;;12.53;;
1691;SDS011;843;52.054;8.552;2023-02-15T08:48:34;23.33;;;13.90;;
1691;SDS011;843;52.054;8.552;2023-02-15T08:51:07;17.83;;;11.80;;
1691;SDS011;843;52.054;8.552;2023-02-15T08:53:36;19.10;;;13.13;;
1691;SDS011;843;52.054;8.552;2023-02-15T08:56:03;21.07;;;13.13;;
1691;SDS011;843;52.054;8.552;2023-02-15T08:58:30;18.03;;;12.10;;
1691;SDS011;843;52.054;8.552;2023-02-15T09:00:57;18.07;;;12.50;;
1691;SDS011;843;52.054;8.552;2023-02-15T09:03:24;14.93;;;11.60;;
1691;SDS011;843;52.054;8.552;2023-02-15T09:05:57;17.87;;;11.70;;
1691;SDS011;843;52.054;8.552;2023-02-15T09:08:26;13.97;;;11.17;;
1691;SDS011;843;52.054;8.552;2023-02-15T09:10:54;15.83;;;11.90;;
1691;SDS011;843;52.054;8.552;2023-02-15T09:13:21;14.93;;;11.20;;
1691;SDS011;843;52.054;8.552;2023-02-15T09:15:47;14.40;;;12.00;;
1691;SDS011;843;52.054;8.552;2023-02-15T09:18:14;14.80;;;10.77;;
1691;SDS011;843;52.054;8.552;2023-02-15T09:20:42;16.50;;;11.97;;
1691;SDS011;843;52.054;8.552;2023-02-15T09:23:10;19.57;;;12.53;;
1691;SDS011;843;52.054;8.552;2023-02-15T09:25:38;18.40;;;13.07;;
1691;SDS011;843;52.054;8.552;2023-02-15T09:28:04;16.20;;;11.20;;
1691;SDS011;843;52.054;8.552;2023-02-15T09:30:31;19.40;;;12.80;;
1691;SDS011;843;52.054;8.552;2023-02-15T09:32:58;16.80;;;12.73;;
1691;SDS011;843;52.054;8.552;2023-02-15T09:35:25;16.90;;;12.20;;
1691;SDS011;843;52.054;8.552;2023-02-15T09:37:51;14.97;;;11.03;;
1691;SDS011;843;52.054;8.552;2023-02-15T09:40:18;14.67;;;11.07;;
1691;SDS011;843;52.054;8.552;2023-02-15T09:42:58;14.27;;;11.27;;
1691;SDS011;843;52.054;8.552;2023-02-15T09:45:38;13.10;;;9.90;;
1691;SDS011;843;52.054;8.552;2023-02-15T09:48:23;15.77;;;11.20;;
1691;SDS011;843;52.054;8.552;2023-02-15T09:50:59;15.90;;;11.27;;
1691;SDS011;843;52.054;8.552;2023-02-15T09:53:36;14.63;;;10.93;;
1691;SDS011;843;52.054;8.552;2023-02-15T09:56:10;17.27;;;13.20;;
1691;SDS011;843;52.054;8.552;2023-02-15T09:58:45;17.17;;;12.27;;
1691;SDS011;843;52.054;8.552;2023-02-15T10:01:16;17.63;;;12.70;;
1691;SDS011;843;52.054;8.552;2023-02-15T10:03:53;15.13;;;11.10;;
1691;SDS011;843;52.054;8.552;2023-02-15T10:06:32;13.97;;;10.40;;
1691;SDS011;843;52.054;8.552;2023-02-15T10:09:11;14.90;;;11.27;;
1691;SDS011;843;52.054;8.552;2023-02-15T10:11:52;12.17;;;10.70;;
1691;SDS011;843;52.054;8.552;2023-02-15T10:14:33;14.87;;;11.43;;
1691;SDS011;843;52.054;8.552;2023-02-15T10:17:10;14.80;;;10.13;;
1691;SDS011;843;52.054;8.552;2023-02-15T10:19:46;13.53;;;9.93;;
1691;SDS011;843;52.054;8.552;2023-02-15T10:22:21;14.53;;;10.80;;
1691;SDS011;843;52.054;8.552;2023-02-15T10:24:57;14.47;;;10.43;;
1691;SDS011;843;52.054;8.552;2023-02-15T10:27:37;14.27;;;10.67;;
1691;SDS011;843;52.054;8.552;2023-02-15T10:30:12;14.90;;;10.17;;
1691;SDS011;843;52.054;8.552;2023-02-15T10:32:43;14.47;;;10.80;;
1691;SDS011;843;52.054;8.552;2023-02-15T10:35:20;13.07;;;10.60;;
1691;SDS011;843;52.054;8.552;2023-02-15T10:37:53;13.33;;;9.90;;
1691;SDS011;843;52.054;8.552;2023-02-15T10:40:33;11.77;;;9.80;;
1691;SDS011;843;52.054;8.552;2023-02-15T10:43:13;15.20;;;10.13;;
1691;SDS011;843;52.054;8.552;2023-02-15T10:45:49;13.43;;;10.27;;
1691;SDS011;843;52.054;8.552;2023-02-15T10:48:23;14.90;;;11.90;;
1691;SDS011;843;52.054;8.552;2023-02-15T10:50:56;14.53;;;10.97;;
1691;SDS011;843;52.054;8.552;2023-02-15T10:53:31;15.50;;;11.53;;
1691;SDS011;843;52.054;8.552;2023-02-15T10:56:16;13.47;;;10.70;;
1691;SDS011;843;52.054;8.552;2023-02-15T10:58:59;15.63;;;9.87;;
1691;SDS011;843;52.054;8.552;2023-02-15T11:01:36;17.60;;;10.77;;
1691;SDS011;843;52.054;8.552;2023-02-15T11:07:08;13.63;;;9.97;;
1691;SDS011;843;52.054;8.552;2023-02-15T11:09:41;14.20;;;10.00;;
1691;SDS011;843;52.054;8.552;2023-02-15T11:12:12;13.60;;;10.53;;
1691;SDS011;843;52.054;8.552;2023-02-15T11:14:41;15.10;;;10.53;;
1691;SDS011;843;52.054;8.552;2023-02-15T11:17:15;14.43;;;11.27;;
1691;SDS011;843;52.054;8.552;2023-02-15T11:19:45;18.43;;;12.83;;
1691;SDS011;843;52.054;8.552;2023-02-15T11:22:16;14.73;;;11.20;;
1691;SDS011;843;52.054;8.552;2023-02-15T11:24:43;13.20;;;10.60;;
1691;SDS011;843;52.054;8.552;2023-02-15T11:27:17;15.03;;;10.93;;
1691;SDS011;843;52.054;8.552;2023-02-15T11:29:48;17.23;;;11.70;;
1691;SDS011;843;52.054;8.552;2023-02-15T11:32:21;16.33;;;11.70;;
1691;SDS011;843;52.054;8.552;2023-02-15T11:34:50;16.20;;;12.20;;
1691;SDS011;843;52.054;8.552;2023-02-15T11:37:21;16.03;;;12.20;;
1691;SDS011;843;52.054;8.552;2023-02-15T11:39:50;18.07;;;12.40;;
1691;SDS011;843;52.054;8.552;2023-02-15T11:42:20;13.87;;;11.50;;
1691;SDS011;843;52.054;8.552;2023-02-15T11:44:51;16.83;;;11.93;;
1691;SDS011;843;52.054;8.552;2023-02-15T11:47:24;16.47;;;12.23;;
1691;SDS011;843;52.054;8.552;2023-02-15T11:49:51;16.47;;;11.70;;
1691;SDS011;843;52.054;8.552;2023-02-15T11:52:17;17.83;;;12.43;;
1691;SDS011;843;52.054;8.552;2023-02-15T11:54:46;18.73;;;11.17;;
1691;SDS011;843;52.054;8.552;2023-02-15T11:57:15;16.53;;;11.50;;
1691;SDS011;843;52.054;8.552;2023-02-15T11:59:46;16.70;;;11.00;;
1691;SDS011;843;52.054;8.552;2023-02-15T12:02:15;15.67;;;11.60;;
1691;SDS011;843;52.054;8.552;2023-02-15T12:04:46;19.10;;;12.90;;
1691;SDS011;843;52.054;8.552;2023-02-15T12:07:17;20.30;;;12.00;;
1691;SDS011;843;52.054;8.552;2023-02-15T12:09:48;20.30;;;12.70;;
1691;SDS011;843;52.054;8.552;2023-02-15T12:12:20;16.17;;;12.10;;
1691;SDS011;843;52.054;8.552;2023-02-15T12:14:48;21.03;;;11.97;;
1691;SDS011;843;52.054;8.552;2023-02-15T12:17:16;16.00;;;12.77;;
1691;SDS011;843;52.054;8.552;2023-02-15T12:19:44;18.43;;;11.83;;
1691;SDS011;843;52.054;8.552;2023-02-15T12:22:18;17.23;;;13.17;;
1691;SDS011;843;52.054;8.552;2023-02-15T12:24:49;22.43;;;13.80;;
1691;SDS011;843;52.054;8.552;2023-02-15T12:27:17;19.47;;;12.40;;
1691;SDS011;843;52.054;8.552;2023-02-15T12:29:47;18.83;;;13.47;;
1691;SDS011;843;52.054;8.552;2023-02-15T12:32:16;16.80;;;12.63;;
1691;SDS011;843;52.054;8.552;2023-02-15T12:34:45;22.67;;;13.47;;
1691;SDS011;843;52.054;8.552;2023-02-15T12:37:15;15.13;;;11.87;;
1691;SDS011;843;52.054;8.552;2023-02-15T12:39:51;18.83;;;13.30;;
1691;SDS011;843;52.054;8.552;2023-02-15T12:42:18;15.43;;;11.53;;
1691;SDS011;843;52.054;8.552;2023-02-15T12:44:53;16.13;;;11.80;;
1691;SDS011;843;52.054;8.552;2023-02-15T12:47:21;18.17;;;12.70;;
1691;SDS011;843;52.054;8.552;2023-02-15T12:50:05;17.10;;;11.40;;
1691;SDS011;843;52.054;8.552;2023-02-15T12:52:41;19.60;;;13.23;;
1691;SDS011;843;52.054;8.552;2023-02-15T12:55:18;19.50;;;12.97;;
1691;SDS011;843;52.054;8.552;2023-02-15T12:57:47;19.00;;;12.00;;
1691;SDS011;843;52.054;8.552;2023-02-15T13:00:25;18.13;;;13.27;;
1691;SDS011;843;52.054;8.552;2023-02-15T13:02:54;21.23;;;13.23;;
1691;SDS011;843;52.054;8.552;2023-02-15T13:05:25;17.50;;;12.30;;
1691;SDS011;843;52.054;8.552;2023-02-15T13:07:53;17.50;;;12.83;;
1691;SDS011;843;52.054;8.552;2023-02-15T13:10:22;18.60;;;11.90;;
1691;SDS011;843;52.054;8.552;2023-02-15T13:12:51;18.30;;;12.53;;
1691;SDS011;843;52.054;8.552;2023-02-15T13:15:27;15.60;;;11.53;;
1691;SDS011;843;52.054;8.552;2023-02-15T13:17:57;18.40;;;12.40;;
1691;SDS011;843;52.054;8.552;2023-02-15T13:20:25;16.83;;;12.00;;
1691;SDS011;843;52.054;8.552;2023-02-15T13:22:53;18.60;;;12.07;;
1691;SDS011;843;52.054;8.552;2023-02-15T13:25:24;17.33;;;10.77;;
1691;SDS011;843;52.054;8.552;2023-02-15T13:27:52;17.60;;;13.07;;
1691;SDS011;843;52.054;8.552;2023-02-15T13:30:23;18.60;;;12.80;;
1691;SDS011;843;52.054;8.552;2023-02-15T13:32:51;19.00;;;12.53;;
1691;SDS011;843;52.054;8.552;2023-02-15T13:35:19;18.90;;;12.07;;
1691;SDS011;843;52.054;8.552;2023-02-15T13:38:00;21.20;;;13.00;;
1691;SDS011;843;52.054;8.552;2023-02-15T13:40:33;20.27;;;13.83;;
1691;SDS011;843;52.054;8.552;2023-02-15T13:43:05;21.60;;;13.40;;
1691;SDS011;843;52.054;8.552;2023-02-15T13:45:52;19.23;;;12.90;;
1691;SDS011;843;52.054;8.552;2023-02-15T13:48:25;16.70;;;12.30;;
1691;SDS011;843;52.054;8.552;2023-02-15T13:51:06;19.70;;;12.30;;
1691;SDS011;843;52.054;8.552;2023-02-15T13:56:25;16.53;;;12.00;;
1691;SDS011;843;52.054;8.552;2023-02-15T13:59:05;18.47;;;12.10;;
1691;SDS011;843;52.054;8.552;2023-02-15T14:01:49;19.47;;;13.97;;
1691;SDS011;843;52.054;8.552;2023-02-15T14:04:25;19.23;;;12.60;;
1691;SDS011;843;52.054;8.552;2023-02-15T14:07:01;18.67;;;11.77;;
1691;SDS011;843;52.054;8.552;2023-02-15T14:09:47;17.90;;;11.70;;
1691;SDS011;843;52.054;8.552;2023-02-15T14:12:25;16.03;;;12.37;;
1691;SDS011;843;52.054;8.552;2023-02-15T14:15:13;19.30;;;13.27;;
1691;SDS011;843;52.054;8.552;2023-02-15T14:17:50;18.63;;;12.90;;
1691;SDS011;843;52.054;8.552;2023-02-15T14:20:24;18.90;;;12.47;;
1691;SDS011;843;52.054;8.552;2023-02-15T14:22:56;17.53;;;11.70;;
1691;SDS011;843;52.054;8.552;2023-02-15T14:25:30;18.83;;;11.73;;
1691;SDS011;843;52.054;8.552;2023-02-15T14:28:02;15.60;;;11.83;;
1691;SDS011;843;52.054;8.552;2023-02-15T14:30:33;20.73;;;13.17;;
1691;SDS011;843;52.054;8.552;2023-02-15T14:33:04;18.83;;;12.77;;
1691;SDS011;843;52.054;8.552;2023-02-15T14:35:32;19.97;;;13.57;;
1691;SDS011;843;52.054;8.552;2023-02-15T14:38:01;16.80;;;12.43;;
1691;SDS011;843;52.054;8.552;2023-02-15T14:40:34;20.80;;;13.00;;
1691;SDS011;843;52.054;8.552;2023-02-15T14:43:27;17.23;;;12.50;;
1691;SDS011;843;52.054;8.552;2023-02-15T14:46:00;18.33;;;11.73;;
1691;SDS011;843;52.054;8.552;2023-02-15T14:48:31;19.27;;;13.97;;
1691;SDS011;843;52.054;8.552;2023-02-15T14:51:00;16.53;;;11.73;;
1691;SDS011;843;52.054;8.552;2023-02-15T14:53:34;20.77;;;13.63;;
1691;SDS011;843;52.054;8.552;2023-02-15T14:56:14;22.17;;;13.07;;
1691;SDS011;843;52.054;8.552;2023-02-15T14:58:57;22.57;;;13.63;;
1691;SDS011;843;52.054;8.552;2023-02-15T15:01:38;19.40;;;13.07;;
1691;SDS011;843;52.054;8.552;2023-02-15T15:04:06;24.23;;;12.97;;
1691;SDS011;843;52.054;8.552;2023-02-15T15:06:35;21.17;;;13.27;;
1691;SDS011;843;52.054;8.552;2023-02-15T15:09:09;17.67;;;11.97;;
1691;SDS011;843;52.054;8.552;2023-02-15T15:11:43;18.80;;;13.30;;
1691;SDS011;843;52.054;8.552;2023-02-15T15:17:03;27.90;;;14.47;;
1691;SDS011;843;52.054;8.552;2023-02-15T15:22:39;36.60;;;22.67;;
1691;SDS011;843;52.054;8.552;2023-02-15T15:25:11;28.80;;;18.87;;
1691;SDS011;843;52.054;8.552;2023-02-15T15:27:41;35.43;;;20.57;;
1691;SDS011;843;52.054;8.552;2023-02-15T15:39:47;18.23;;;12.13;;
1691;SDS011;843;52.054;8.552;2023-02-15T15:42:29;21.00;;;13.33;;
1691;SDS011;843;52.054;8.552;2023-02-15T15:48:00;17.03;;;12.43;;
1691;SDS011;843;52.054;8.552;2023-02-15T15:50:32;18.47;;;12.90;;
1691;SDS011;843;52.054;8.552;2023-02-15T15:52:59;18.13;;;12.03;;
1691;SDS011;843;52.054;8.552;2023-02-15T15:55:27;19.17;;;12.33;;
1691;SDS011;843;52.054;8.552;2023-02-15T15:57:56;20.67;;;12.87;;
1691;SDS011;843;52.054;8.552;2023-02-15T16:00:26;19.50;;;12.80;;
1691;SDS011;843;52.054;8.552;2023-02-15T16:02:58;17.60;;;11.60;;
1691;SDS011;843;52.054;8.552;2023-02-15T16:05:24;20.10;;;13.60;;
1691;SDS011;843;52.054;8.552;2023-02-15T16:07:51;18.50;;;12.70;;
1691;SDS011;843;52.054;8.552;2023-02-15T16:10:22;18.43;;;12.90;;
1691;SDS011;843;52.054;8.552;2023-02-15T16:12:50;21.50;;;13.83;;
1691;SDS011;843;52.054;8.552;2023-02-15T16:15:18;19.07;;;12.80;;
1691;SDS011;843;52.054;8.552;2023-02-15T16:17:46;18.63;;;12.80;;
1691;SDS011;843;52.054;8.552;2023-02-15T16:20:16;23.17;;;15.13;;
1691;SDS011;843;52.054;8.552;2023-02-15T16:22:45;20.57;;;12.97;;
1691;SDS011;843;52.054;8.552;2023-02-15T16:25:27;21.53;;;13.13;;
1691;SDS011;843;52.054;8.552;2023-02-15T16:28:05;23.57;;;14.50;;
1691;SDS011;843;52.054;8.552;2023-02-15T16:30:33;19.90;;;13.43;;
1691;SDS011;843;52.054;8.552;2023-02-15T16:33:04;18.33;;;12.90;;
1691;SDS011;843;52.054;8.552;2023-02-15T16:35:34;21.57;;;13.17;;
1691;SDS011;843;52.054;8.552;2023-02-15T16:38:01;19.57;;;12.60;;
1691;SDS011;843;52.054;8.552;2023-02-15T16:40:37;19.10;;;13.30;;
1691;SDS011;843;52.054;8.552;2023-02-15T16:43:17;35.43;;;22.40;;
1691;SDS011;843;52.054;8.552;2023-02-15T16:45:46;23.73;;;14.67;;
1691;SDS011;843;52.054;8.552;2023-02-15T16:48:15;51.90;;;31.53;;
1691;SDS011;843;52.054;8.552;2023-02-15T16:50:48;92.60;;;54.23;;